aviador You're here:

HESH Decoded Metar

SHARM EL SHEIKHI in EGYPT
Report Time2018-02-18 21:00:00
UTC Time2018-02-18 21:53:26
Flight Rules vfr VFR
Wind340° at 06 kt
W.Decomp.*RWY 04: 2.7 kt HW 5.3 kt LCW
W.Rank340° ranks 6
Current wind is below 340° avg. (6.2)
Visibility9999 m
Phenomena:N/A
Clouds:N/A
Expected CloudBase > 3,600 ft AGL from Temp-Dew spread
CeilingNone
Temp17°C (ISA +2)
Dew Point08°C (56% RH)
AAT14.4°C
QNH1016 hPa
Density Alt482 ft
Elevation164 ft
Report Wrong Elevation
Raw Report
HESH 182100Z 34006KT CAVOK 17/08 Q1016 NOSIG=

Extra information for HESH:More info

Metar Taf Metar & Taf Last 4 Metars F.Rules Stats Wind Profile Meteogram Temp Stats Airport Information Weather charts Add Link Nearby VenuesMetar ALERT Operation Metar Decoded Social comments